createdAt,value
2022-08-08T00:01:08.023Z,68.16
2022-08-08T00:04:16.301Z,69.25
2022-08-08T00:06:55.537Z,68.22
2022-08-08T00:09:34.096Z,68.80
2022-08-08T00:12:10.222Z,69.89
2022-08-08T00:14:59.517Z,69.63
2022-08-08T00:18:02.117Z,69.92
2022-08-08T00:20:42.944Z,70.52
2022-08-08T00:23:16.327Z,70.80
2022-08-08T00:25:50.856Z,70.61
2022-08-08T00:28:35.145Z,70.30
2022-08-08T00:32:28.791Z,71.09
2022-08-08T00:34:54.286Z,70.91
2022-08-08T00:37:47.124Z,71.25
2022-08-08T00:41:11.467Z,70.82
2022-08-08T00:43:40.022Z,70.73
2022-08-08T00:46:56.875Z,71.56
2022-08-08T00:49:38.663Z,72.19
2022-08-08T00:52:39.238Z,71.45
2022-08-08T00:55:53.193Z,71.90
2022-08-08T00:58:54.137Z,71.31
2022-08-08T01:01:38.146Z,71.83
2022-08-08T01:04:48.548Z,71.86
2022-08-08T01:07:55.834Z,71.93
2022-08-08T01:10:43.089Z,71.90
2022-08-08T01:13:43.660Z,72.34
2022-08-08T01:16:32.160Z,72.19
2022-08-08T01:19:52.121Z,72.06
2022-08-08T01:22:50.469Z,72.98
2022-08-08T01:25:55.076Z,73.51
2022-08-08T01:28:31.048Z,73.34
2022-08-08T01:31:34.402Z,73.19
2022-08-08T01:35:02.160Z,73.78
2022-08-08T01:38:22.540Z,73.45
2022-08-08T01:41:02.326Z,73.21
2022-08-08T01:43:40.454Z,72.51
2022-08-08T01:46:41.970Z,73.77
2022-08-08T01:49:37.733Z,73.57
2022-08-08T01:52:57.263Z,74.05
2022-08-08T01:56:28.560Z,74.25
2022-08-08T01:59:03.839Z,74.42
2022-08-08T02:02:03.146Z,74.02
2022-08-08T02:04:43.276Z,73.70
2022-08-08T02:07:22.900Z,73.80
2022-08-08T02:10:29.611Z,74.36
2022-08-08T02:13:52.889Z,74.22
2022-08-08T02:16:22.009Z,74.50
2022-08-08T02:19:57.853Z,75.11
2022-08-08T02:22:52.525Z,74.65
2022-08-08T02:25:43.557Z,73.97
2022-08-08T02:28:34.728Z,75.60
2022-08-08T02:31:43.886Z,75.65
2022-08-08T02:35:08.354Z,74.99
2022-08-08T02:38:25.370Z,76.06
2022-08-08T02:41:59.570Z,75.57
2022-08-08T02:44:57.158Z,76.09
2022-08-08T02:47:52.186Z,76.20
2022-08-08T02:50:55.823Z,76.51
2022-08-08T02:53:42.499Z,76.23
2022-08-08T02:56:40.444Z,76.75
2022-08-08T03:00:15.878Z,76.61
2022-08-08T03:05:01.043Z,78.06
2022-08-08T03:06:40.500Z,77.93
2022-08-08T03:09:22.665Z,78.03
2022-08-08T03:12:36.431Z,79.59
2022-08-08T03:16:00.660Z,80.47
2022-08-08T03:18:37.088Z,77.47
2022-08-08T03:21:09.648Z,77.94
2022-08-08T03:23:39.915Z,78.61
2022-08-08T03:26:42.362Z,79.07
2022-08-08T03:29:18.844Z,76.77
2022-08-08T03:32:08.512Z,77.91
2022-08-08T03:34:40.329Z,77.95
2022-08-08T03:38:00.237Z,78.23
2022-08-08T03:40:03.524Z,78.83
2022-08-08T03:42:32.400Z,78.61
2022-08-08T03:45:00.306Z,78.52
2022-08-08T03:47:45.631Z,78.44
2022-08-08T03:50:19.693Z,78.61
2022-08-08T03:52:47.647Z,78.43
2022-08-08T03:55:20.014Z,78.26
2022-08-08T03:58:30.075Z,78.79
2022-08-08T04:01:24.314Z,78.66
2022-08-08T04:03:59.302Z,79.49
2022-08-08T04:06:33.658Z,79.36
2022-08-08T04:09:11.376Z,78.76
2022-08-08T04:11:48.169Z,79.27
2022-08-08T04:14:35.841Z,78.83
2022-08-08T04:17:07.128Z,79.38
2022-08-08T04:19:49.513Z,79.14
2022-08-08T04:22:18.485Z,79.30
2022-08-08T04:24:50.758Z,79.32
2022-08-08T04:27:42.898Z,79.67
2022-08-08T04:30:18.329Z,79.50
2022-08-08T04:32:49.913Z,79.29
2022-08-08T04:35:20.340Z,79.76
2022-08-08T04:37:51.097Z,80.03
2022-08-08T04:40:24.126Z,80.25
2022-08-08T04:42:56.722Z,80.48
2022-08-08T04:45:27.571Z,80.68
2022-08-08T04:48:00.212Z,80.78
2022-08-08T04:50:37.564Z,80.29
2022-08-08T04:53:14.167Z,80.78
2022-08-08T04:55:56.046Z,81.31
2022-08-08T04:58:25.884Z,81.17
2022-08-08T05:00:53.161Z,82.04
2022-08-08T05:04:09.636Z,81.18
2022-08-08T05:06:13.619Z,81.24
2022-08-08T05:08:51.588Z,81.71
2022-08-08T05:11:23.202Z,80.60
2022-08-08T05:13:58.756Z,81.16
2022-08-08T05:16:54.431Z,79.63
2022-08-08T05:20:10.051Z,79.85
2022-08-08T05:22:07.551Z,80.31
2022-08-08T05:24:37.456Z,80.48
2022-08-08T05:27:05.048Z,80.16
2022-08-08T05:29:36.008Z,79.90
2022-08-08T05:32:07.681Z,79.15
2022-08-08T05:34:51.217Z,79.30
2022-08-08T05:37:39.037Z,77.89
2022-08-08T05:40:16.756Z,77.61
2022-08-08T05:42:48.945Z,77.29
2022-08-08T05:45:25.551Z,77.06
2022-08-08T05:48:08.330Z,76.60
2022-08-08T05:50:36.888Z,75.70
2022-08-08T05:53:54.551Z,74.58
2022-08-08T05:56:08.280Z,73.75
2022-08-08T05:58:57.192Z,72.39
2022-08-08T06:01:57.088Z,70.46
2022-08-08T06:04:24.813Z,69.81
2022-08-08T06:07:00.605Z,69.49
2022-08-08T06:10:00.005Z,68.61
2022-08-08T06:12:30.237Z,67.61
2022-08-08T06:15:01.149Z,64.76
2022-08-08T06:17:51.024Z,64.15
2022-08-08T06:20:22.936Z,62.95
2022-08-08T06:22:52.429Z,62.87
2022-08-08T06:25:33.421Z,62.78
2022-08-08T06:28:29.693Z,61.82
2022-08-08T06:31:03.531Z,61.63
2022-08-08T06:34:25.875Z,60.17
2022-08-08T06:36:53.097Z,59.33
2022-08-08T06:39:24.980Z,58.90
2022-08-08T06:42:04.239Z,58.05
2022-08-08T06:44:42.678Z,57.28
2022-08-08T06:47:10.569Z,56.27
2022-08-08T06:49:55.702Z,56.28
2022-08-08T06:52:23.834Z,55.00
2022-08-08T06:54:55.362Z,53.57
2022-08-08T06:57:24.968Z,53.09
2022-08-08T07:00:10.384Z,53.20
2022-08-08T07:02:45.986Z,50.66
2022-08-08T07:05:20.070Z,48.71
2022-08-08T07:08:23.432Z,48.33
2022-08-08T07:10:55.863Z,48.54
2022-08-08T07:13:25.494Z,49.18
2022-08-08T07:16:05.048Z,47.52
2022-08-08T07:19:10.874Z,47.52
2022-08-08T07:22:00.466Z,47.29
2022-08-08T07:24:37.462Z,47.47
2022-08-08T07:27:11.411Z,46.77
2022-08-08T07:30:02.378Z,46.57
2022-08-08T07:32:34.527Z,45.42
2022-08-08T07:35:06.122Z,44.30
2022-08-08T07:37:55.710Z,44.99
2022-08-08T07:40:33.934Z,43.89
2022-08-08T07:43:09.090Z,43.29
2022-08-08T07:46:04.859Z,42.87
2022-08-08T07:48:29.676Z,43.19
2022-08-08T07:51:00.790Z,42.61
2022-08-08T07:54:02.400Z,42.12
2022-08-08T07:56:37.010Z,40.98
2022-08-08T07:59:14.250Z,39.93
2022-08-08T08:02:34.718Z,39.76
2022-08-08T08:04:46.718Z,39.91
2022-08-08T08:07:17.161Z,39.50
2022-08-08T08:09:44.392Z,38.31
2022-08-08T08:12:31.563Z,37.80
2022-08-08T08:15:05.361Z,36.57
2022-08-08T08:17:48.204Z,35.85
2022-08-08T08:20:17.575Z,36.49
2022-08-08T08:22:44.066Z,36.63
2022-08-08T08:25:16.940Z,36.45
2022-08-08T08:27:46.825Z,36.29
2022-08-08T08:30:14.798Z,35.88
2022-08-08T08:32:51.042Z,35.85
2022-08-08T08:35:18.212Z,34.70
2022-08-08T08:38:14.464Z,34.65
2022-08-08T08:40:35.581Z,35.27
2022-08-08T08:43:03.972Z,34.47
2022-08-08T08:45:31.602Z,34.24
2022-08-08T08:48:01.769Z,34.05
2022-08-08T08:50:35.312Z,33.24
2022-08-08T08:53:55.572Z,34.36
2022-08-08T08:56:06.934Z,33.51
2022-08-08T08:58:46.730Z,33.40
2022-08-08T09:01:23.700Z,33.72
2022-08-08T09:03:55.334Z,33.23
2022-08-08T09:06:34.272Z,33.07
2022-08-08T09:09:26.649Z,32.65
2022-08-08T09:12:07.486Z,33.48
2022-08-08T09:14:35.332Z,33.42
2022-08-08T09:17:09.695Z,32.89
2022-08-08T09:22:01.479Z,32.83
2022-08-08T09:22:27.948Z,32.49
2022-08-08T09:24:58.561Z,31.99
2022-08-08T09:27:56.812Z,31.71
2022-08-08T09:30:17.583Z,32.08
2022-08-08T09:33:12.790Z,31.46
2022-08-08T09:35:39.392Z,32.68
2022-08-08T09:38:24.486Z,32.67
2022-08-08T09:41:01.975Z,33.13
2022-08-08T09:44:04.242Z,33.28
2022-08-08T09:46:25.851Z,33.43
2022-08-08T09:48:57.853Z,33.73
2022-08-08T09:52:07.053Z,33.39
2022-08-08T09:54:42.380Z,33.60
2022-08-08T09:57:17.008Z,33.67
2022-08-08T10:00:01.973Z,33.48
2022-08-08T10:02:44.812Z,34.86
2022-08-08T10:05:26.067Z,34.37
2022-08-08T10:08:00.543Z,34.57
2022-08-08T10:10:41.642Z,33.85
2022-08-08T10:13:35.462Z,33.30
2022-08-08T10:16:03.781Z,33.97
2022-08-08T10:18:32.889Z,33.56
2022-08-08T10:21:23.227Z,33.46
2022-08-08T10:23:58.586Z,33.61
2022-08-08T10:26:52.395Z,33.23
2022-08-08T10:29:23.313Z,34.01
2022-08-08T10:32:16.453Z,34.18
2022-08-08T10:34:58.602Z,33.54
2022-08-08T10:37:35.409Z,33.71
2022-08-08T10:40:16.833Z,32.89
2022-08-08T10:42:45.418Z,33.06
2022-08-08T10:45:12.344Z,32.64
2022-08-08T10:47:48.521Z,33.13
2022-08-08T10:50:23.598Z,34.38
2022-08-08T10:52:50.655Z,33.36
2022-08-08T10:55:39.792Z,34.30
2022-08-08T10:58:08.992Z,33.79
2022-08-08T11:00:53.167Z,33.81
2022-08-08T11:04:00.583Z,33.14
2022-08-08T11:06:35.604Z,32.26
2022-08-08T11:09:19.235Z,32.56
2022-08-08T11:12:05.506Z,33.32
2022-08-08T11:14:34.704Z,32.78
2022-08-08T11:17:02.717Z,33.31
2022-08-08T11:19:33.529Z,33.29
2022-08-08T11:22:01.324Z,33.05
2022-08-08T11:24:34.202Z,31.91
2022-08-08T11:27:10.369Z,31.29
2022-08-08T11:29:58.428Z,31.98
2022-08-08T11:32:38.652Z,31.46
2022-08-08T11:35:27.315Z,31.27
2022-08-08T11:38:39.189Z,31.54
2022-08-08T11:40:52.400Z,31.44
2022-08-08T11:43:21.695Z,31.56
2022-08-08T11:46:14.417Z,31.49
2022-08-08T11:48:39.233Z,31.50
2022-08-08T11:51:34.931Z,31.62
2022-08-08T11:53:59.268Z,31.19
2022-08-08T11:56:33.196Z,31.27
2022-08-08T11:59:09.617Z,31.11
2022-08-08T12:01:37.083Z,30.87
2022-08-08T12:04:05.687Z,30.93
2022-08-08T12:06:33.292Z,30.97
2022-08-08T12:09:08.262Z,30.57
2022-08-08T12:11:52.928Z,30.48
2022-08-08T12:14:29.208Z,30.59
2022-08-08T12:16:57.106Z,30.64
2022-08-08T12:19:38.009Z,30.56
2022-08-08T12:22:13.926Z,31.37
2022-08-08T12:24:53.948Z,30.35
2022-08-08T12:27:26.947Z,29.94
2022-08-08T12:30:02.409Z,29.68
2022-08-08T12:32:41.465Z,29.38
2022-08-08T12:35:23.106Z,29.08
2022-08-08T12:38:05.859Z,29.20
2022-08-08T12:40:54.221Z,28.61
2022-08-08T12:43:43.569Z,28.83
2022-08-08T12:46:25.086Z,28.40
2022-08-08T12:49:22.266Z,29.44
2022-08-08T12:51:59.281Z,28.79
2022-08-08T12:54:38.334Z,28.35
2022-08-08T12:57:26.033Z,29.49
2022-08-08T13:00:03.370Z,29.29
2022-08-08T13:02:42.171Z,29.05
2022-08-08T13:05:26.583Z,29.04
2022-08-08T13:08:18.358Z,29.92
2022-08-08T13:10:56.312Z,29.64
2022-08-08T13:13:37.278Z,30.21
2022-08-08T13:16:21.291Z,29.85
2022-08-08T13:18:58.190Z,28.99
2022-08-08T13:21:48.770Z,28.68
2022-08-08T13:24:18.774Z,28.93
2022-08-08T13:27:03.406Z,29.06
2022-08-08T13:29:37.874Z,29.05
2022-08-08T13:32:10.945Z,28.72
2022-08-08T13:34:40.171Z,28.74
2022-08-08T13:37:11.047Z,28.98
2022-08-08T13:39:56.374Z,29.14
2022-08-08T13:42:25.157Z,28.77
2022-08-08T13:44:55.690Z,28.31
2022-08-08T13:47:23.016Z,28.62
2022-08-08T13:50:35.640Z,29.04
2022-08-08T13:52:51.332Z,29.32
2022-08-08T13:55:29.303Z,29.19
2022-08-08T13:58:07.963Z,29.02
2022-08-08T14:00:45.100Z,28.69
2022-08-08T14:03:52.486Z,29.13
2022-08-08T14:06:32.394Z,30.07
2022-08-08T14:08:58.060Z,29.97
2022-08-08T14:11:29.496Z,29.85
2022-08-08T14:13:59.689Z,30.00
2022-08-08T14:16:27.875Z,29.55
2022-08-08T14:19:00.859Z,29.18
2022-08-08T14:21:59.237Z,30.11
2022-08-08T14:24:32.643Z,29.10
2022-08-08T14:26:59.110Z,29.33
2022-08-08T14:29:30.822Z,29.71
2022-08-08T14:32:09.187Z,29.89
2022-08-08T14:34:37.532Z,30.04
2022-08-08T14:37:08.538Z,30.50
2022-08-08T14:40:05.814Z,30.46
2022-08-08T14:42:35.736Z,30.77
2022-08-08T14:45:09.971Z,31.19
2022-08-08T14:47:57.354Z,31.42
2022-08-08T14:50:38.890Z,31.01
2022-08-08T14:53:14.239Z,31.14
2022-08-08T14:55:43.106Z,31.38
2022-08-08T14:58:11.763Z,30.78
2022-08-08T15:00:43.328Z,31.09
2022-08-08T15:03:15.861Z,31.38
2022-08-08T15:05:54.775Z,31.60
2022-08-08T15:08:34.828Z,31.81
2022-08-08T15:11:11.127Z,31.60
2022-08-08T15:14:02.052Z,31.54
2022-08-08T15:16:29.815Z,31.54
2022-08-08T15:19:01.344Z,31.95
2022-08-08T15:21:30.305Z,31.78
2022-08-08T15:23:57.005Z,32.28
2022-08-08T15:26:25.848Z,32.10
2022-08-08T15:28:55.356Z,32.21
2022-08-08T15:31:55.815Z,32.20
2022-08-08T15:34:29.034Z,32.08
2022-08-08T15:36:56.570Z,32.57
2022-08-08T15:39:23.063Z,32.44
2022-08-08T15:41:49.626Z,32.09
2022-08-08T15:44:18.049Z,32.52
2022-08-08T15:46:45.278Z,32.99
2022-08-08T15:49:17.476Z,32.81
2022-08-08T15:51:48.172Z,32.69
2022-08-08T15:54:18.750Z,32.94
2022-08-08T15:57:02.884Z,32.42
2022-08-08T16:00:06.113Z,33.02
2022-08-08T16:02:16.217Z,33.10
2022-08-08T16:04:44.175Z,32.71
2022-08-08T16:07:16.767Z,32.97
2022-08-08T16:13:09.455Z,32.87
2022-08-08T16:13:14.780Z,32.89
2022-08-08T16:15:16.324Z,32.70
2022-08-08T16:18:06.443Z,32.61
2022-08-08T16:24:07.111Z,32.60
2022-08-08T16:26:39.393Z,32.08
2022-08-08T16:29:16.219Z,32.01
2022-08-08T16:31:49.149Z,32.11
2022-08-08T16:34:19.235Z,32.59
2022-08-08T16:36:45.761Z,32.21
2022-08-08T16:39:59.615Z,31.84
2022-08-08T16:42:05.867Z,32.19
2022-08-08T16:44:33.830Z,32.14
2022-08-08T16:47:21.897Z,32.06
2022-08-08T16:49:59.645Z,32.29
2022-08-08T16:55:01.173Z,32.44
2022-08-08T16:55:42.391Z,32.52
2022-08-08T16:58:14.355Z,32.06
2022-08-08T17:00:48.874Z,32.41
2022-08-08T17:03:24.447Z,32.49
2022-08-08T17:05:53.505Z,32.35
2022-08-08T17:08:20.612Z,32.89
2022-08-08T17:10:57.580Z,32.74
2022-08-08T17:13:27.439Z,32.88
2022-08-08T17:16:07.286Z,34.17
2022-08-08T17:18:41.970Z,34.69
2022-08-08T17:21:09.788Z,34.47
2022-08-08T17:24:00.556Z,34.55
2022-08-08T17:26:28.940Z,34.46
2022-08-08T17:28:56.446Z,33.94
2022-08-08T17:31:45.417Z,33.95
2022-08-08T17:34:36.728Z,33.68
2022-08-08T17:37:03.330Z,34.59
2022-08-08T17:40:03.092Z,34.68
2022-08-08T17:42:19.227Z,34.95
2022-08-08T17:44:49.128Z,35.15
2022-08-08T17:47:24.128Z,35.27
2022-08-08T17:50:06.893Z,35.34
2022-08-08T17:52:35.245Z,35.17
2022-08-08T17:56:04.025Z,34.96
2022-08-08T17:57:52.412Z,35.52
2022-08-08T18:00:19.746Z,35.68
2022-08-08T18:03:07.521Z,36.03
2022-08-08T18:05:49.547Z,36.26
2022-08-08T18:08:24.783Z,36.03
2022-08-08T18:11:11.936Z,36.25
2022-08-08T18:13:42.788Z,36.22
2022-08-08T18:16:09.796Z,36.71
2022-08-08T18:18:42.379Z,36.85
2022-08-08T18:21:35.466Z,37.20
2022-08-08T18:23:58.844Z,37.45
2022-08-08T18:26:25.862Z,37.56
2022-08-08T18:28:55.567Z,38.00
2022-08-08T18:31:22.445Z,37.90
2022-08-08T18:34:11.484Z,37.91
2022-08-08T18:36:36.562Z,38.35
2022-08-08T18:39:03.758Z,38.96
2022-08-08T18:41:51.140Z,38.61
2022-08-08T18:44:17.312Z,38.67
2022-08-08T18:46:55.066Z,38.67
2022-08-08T18:49:24.314Z,39.01
2022-08-08T18:51:54.494Z,39.20
2022-08-08T18:54:27.348Z,39.41
2022-08-08T18:56:57.103Z,39.33
2022-08-08T18:59:23.549Z,39.62
2022-08-08T19:02:26.166Z,39.77
2022-08-08T19:04:36.887Z,39.77
2022-08-08T19:07:03.841Z,40.25
2022-08-08T19:09:48.481Z,40.53
2022-08-08T19:12:17.945Z,40.39
2022-08-08T19:14:46.546Z,40.66
2022-08-08T19:17:13.315Z,40.90
2022-08-08T19:20:02.314Z,41.33
2022-08-08T19:22:29.659Z,41.57
2022-08-08T19:26:02.295Z,41.83
2022-08-08T19:27:55.909Z,42.49
2022-08-08T19:30:26.447Z,43.01
2022-08-08T19:32:53.932Z,43.46
2022-08-08T19:35:25.646Z,43.42
2022-08-08T19:38:12.853Z,44.02
2022-08-08T19:40:44.018Z,43.93
2022-08-08T19:43:11.936Z,44.47
2022-08-08T19:45:59.990Z,44.74
2022-08-08T19:48:28.111Z,44.81
2022-08-08T19:50:55.919Z,44.82
2022-08-08T19:53:51.864Z,45.61
2022-08-08T19:56:12.216Z,46.15
2022-08-08T19:58:39.501Z,45.88
2022-08-08T20:01:17.112Z,46.63
2022-08-08T20:04:02.600Z,46.64
2022-08-08T20:06:29.976Z,46.77
2022-08-08T20:08:56.908Z,47.71
2022-08-08T20:11:23.752Z,48.84
2022-08-08T20:14:12.045Z,49.45
2022-08-08T20:16:40.937Z,50.53
2022-08-08T20:19:10.541Z,49.80
2022-08-08T20:21:38.325Z,50.15
2022-08-08T20:24:06.269Z,50.72
2022-08-08T20:26:38.171Z,50.41
2022-08-08T20:29:06.506Z,50.32
2022-08-08T20:32:06.985Z,50.69
2022-08-08T20:34:30.342Z,51.84
2022-08-08T20:36:58.683Z,51.74
2022-08-08T20:39:25.354Z,52.21
2022-08-08T20:42:00.408Z,52.31
2022-08-08T20:44:26.831Z,51.99
2022-08-08T20:46:53.256Z,52.59
2022-08-08T20:49:20.374Z,52.70
2022-08-08T20:51:48.386Z,53.18
2022-08-08T20:54:26.001Z,52.84
2022-08-08T20:57:16.724Z,53.40
2022-08-08T20:59:41.764Z,53.53
2022-08-08T21:02:09.072Z,53.22
2022-08-08T21:04:40.470Z,55.03
2022-08-08T21:07:16.208Z,54.70
2022-08-08T21:09:48.542Z,55.02
2022-08-08T21:12:33.058Z,55.10
2022-08-08T21:15:07.001Z,55.20
2022-08-08T21:17:34.965Z,55.47
2022-08-08T21:20:03.762Z,55.43
2022-08-08T21:22:30.477Z,55.34
2022-08-08T21:24:56.932Z,56.16
2022-08-08T21:28:05.913Z,55.76
2022-08-08T21:30:19.411Z,55.83
2022-08-08T21:32:51.578Z,56.74
2022-08-08T21:36:14.299Z,56.65
2022-08-08T21:38:08.567Z,56.72
2022-08-08T21:40:54.982Z,56.66
2022-08-08T21:43:23.217Z,56.86
2022-08-08T21:48:01.407Z,57.38
2022-08-08T21:48:41.682Z,57.36
2022-08-08T21:51:11.324Z,57.21
2022-08-08T21:54:31.087Z,57.81
2022-08-08T21:56:33.886Z,57.34
2022-08-08T21:59:05.619Z,56.76
2022-08-08T22:01:40.630Z,56.90
2022-08-08T22:06:39.710Z,57.39
2022-08-08T22:09:09.033Z,58.53
2022-08-08T22:12:02.315Z,58.04
2022-08-08T22:14:23.914Z,58.73
2022-08-08T22:16:53.868Z,59.16
2022-08-08T22:19:23.763Z,59.80
2022-08-08T22:21:51.856Z,60.21
2022-08-08T22:24:23.951Z,60.64
2022-08-08T22:27:02.406Z,60.41
2022-08-08T22:30:01.671Z,61.36
2022-08-08T22:32:19.082Z,60.78
2022-08-08T22:34:50.436Z,61.15
2022-08-08T22:37:49.455Z,61.35
2022-08-08T22:40:07.557Z,62.56
2022-08-08T22:42:43.157Z,62.51
2022-08-08T22:45:13.713Z,61.88
2022-08-08T22:47:46.735Z,61.69
2022-08-08T22:50:26.928Z,60.63
2022-08-08T22:54:30.439Z,60.90
2022-08-08T22:55:57.855Z,60.55
2022-08-08T22:58:33.106Z,60.81
2022-08-08T23:01:26.585Z,60.46
2022-08-08T23:03:53.181Z,60.46
2022-08-08T23:06:21.330Z,60.77
2022-08-08T23:08:55.427Z,60.93
2022-08-08T23:11:58.194Z,60.97
2022-08-08T23:14:14.427Z,61.35
2022-08-08T23:16:44.182Z,61.08
2022-08-08T23:19:15.274Z,61.07
2022-08-08T23:21:42.163Z,61.42
2022-08-08T23:24:09.008Z,61.18
2022-08-08T23:26:35.706Z,61.13
2022-08-08T23:29:04.235Z,61.05
2022-08-08T23:31:38.616Z,61.95
2022-08-08T23:34:17.660Z,62.53
2022-08-08T23:36:46.148Z,62.46
2022-08-08T23:39:12.961Z,63.07
2022-08-08T23:41:45.506Z,63.03
2022-08-08T23:44:13.965Z,62.98
2022-08-08T23:49:02.105Z,63.29
2022-08-08T23:49:27.208Z,63.37
2022-08-08T23:52:04.996Z,63.75
2022-08-08T23:54:42.833Z,64.40
2022-08-08T23:57:27.477Z,64.41
